Time;durP1;ratioP1;P1;durP2;ratioP2;P2;SDS_P1;SDS_P2;PMS_P1;PMS_P2;Temp;Humidity;BMP_temperature;BMP_pressure;BME280_temperature;BME280_humidity;BME280_pressure;Samples;Min_cycle;Max_cycle;Signal;HPM_P1;HPM_P2
2022/10/02 00:01:54;;;;;;;6.30;3.88;;;;;;;;;;6216361;23;20025;-91
2022/10/02 00:04:23;;;;;;;4.55;3.90;;;;;;;;;;6215936;23;20032;-92
2022/10/02 00:06:51;;;;;;;4.00;3.67;;;;;;;;;;6215288;23;20024;-94
2022/10/02 00:09:23;;;;;;;5.88;4.70;;;;;;;;;;6216335;23;20021;-92
2022/10/02 00:11:55;;;;;;;6.65;5.05;;;;;;;;;;6216231;23;20253;-93
2022/10/02 00:14:23;;;;;;;5.60;2.88;;;;;;;;;;6216497;23;20017;-94
2022/10/02 00:16:51;;;;;;;6.30;4.00;;;;;;;;;;6216700;23;20025;-94
2022/10/02 00:19:18;;;;;;;7.13;3.97;;;;;;;;;;6218614;23;20083;-94
2022/10/02 00:21:50;;;;;;;4.55;3.78;;;;;;;;;;6217994;23;20024;-95
2022/10/02 00:24:18;;;;;;;4.88;3.53;;;;;;;;;;6215872;23;20449;-95
2022/10/02 00:26:48;;;;;;;5.63;4.85;;;;;;;;;;6216620;23;20043;-94
2022/10/02 00:29:24;;;;;;;6.10;5.53;;;;;;;;;;6215924;23;20339;-93
2022/10/02 00:31:54;;;;;;;5.13;3.80;;;;;;;;;;6216309;23;20103;-96
2022/10/02 00:34:25;;;;;;;4.18;3.70;;;;;;;;;;6216226;23;20020;-96
2022/10/02 00:36:59;;;;;;;5.55;4.47;;;;;;;;;;6215361;23;20021;-96
2022/10/02 00:39:32;;;;;;;9.18;3.38;;;;;;;;;;6215975;23;20398;-96
2022/10/02 00:42:08;;;;;;;7.75;3.47;;;;;;;;;;6215801;23;20409;-96
2022/10/02 00:44:50;;;;;;;5.10;3.83;;;;;;;;;;6215451;23;20024;-96
2022/10/02 00:47:22;;;;;;;11.27;4.13;;;;;;;;;;6215135;23;20054;-96
2022/10/02 00:49:54;;;;;;;7.65;4.18;;;;;;;;;;6229688;23;20024;-96
2022/10/02 00:52:27;;;;;;;4.47;3.88;;;;;;;;;;6233571;23;20024;-96
2022/10/02 00:55:00;;;;;;;4.07;3.38;;;;;;;;;;6229347;23;20083;-96
2022/10/02 00:57:32;;;;;;;7.40;3.90;;;;;;;;;;6231979;23;20028;-96
2022/10/02 01:00:03;;;;;;;9.85;6.18;;;;;;;;;;6216546;23;20397;-93
2022/10/02 01:02:59;;;;;;;6.13;4.03;;;;;;;;;;6214861;23;20031;-93
2022/10/02 01:05:27;;;;;;;6.38;3.85;;;;;;;;;;6099643;23;20023;-96
2022/10/02 01:07:55;;;;;;;7.47;4.20;;;;;;;;;;6113087;23;20034;-96
2022/10/02 01:10:24;;;;;;;6.55;4.03;;;;;;;;;;6110318;23;20073;-96
2022/10/02 01:12:51;;;;;;;10.15;3.72;;;;;;;;;;6105346;23;20054;-96
2022/10/02 01:15:18;;;;;;;4.50;3.08;;;;;;;;;;6104762;23;20416;-96
2022/10/02 01:17:45;;;;;;;4.68;3.95;;;;;;;;;;6099417;23;20523;-96
2022/10/02 01:20:13;;;;;;;6.70;3.78;;;;;;;;;;6096518;23;20531;-95
2022/10/02 01:22:45;;;;;;;5.40;3.95;;;;;;;;;;6093655;23;20054;-95
2022/10/02 01:25:13;;;;;;;3.90;2.78;;;;;;;;;;6093570;23;20098;-95
2022/10/02 01:27:39;;;;;;;5.32;4.53;;;;;;;;;;6093517;23;20034;-95
2022/10/02 01:30:07;;;;;;;7.70;4.53;;;;;;;;;;6093444;23;20056;-94
2022/10/02 01:32:35;;;;;;;5.10;4.60;;;;;;;;;;6093553;23;20070;-94
2022/10/02 01:35:02;;;;;;;7.28;6.20;;;;;;;;;;6093485;23;20022;-93
2022/10/02 01:37:29;;;;;;;4.65;3.97;;;;;;;;;;6093246;23;20018;-93
2022/10/02 01:39:57;;;;;;;5.45;3.40;;;;;;;;;;6170457;23;20021;-94
2022/10/02 01:42:25;;;;;;;5.97;2.92;;;;;;;;;;6215132;23;20083;-94
2022/10/02 01:44:52;;;;;;;5.53;3.50;;;;;;;;;;6214321;23;20098;-93
2022/10/02 01:47:21;;;;;;;4.45;3.45;;;;;;;;;;6214922;23;20020;-93
2022/10/02 01:49:57;;;;;;;7.53;3.30;;;;;;;;;;6214944;23;20090;-93
2022/10/02 01:52:28;;;;;;;5.15;3.58;;;;;;;;;;6214641;23;20075;-93
2022/10/02 01:55:03;;;;;;;4.75;3.67;;;;;;;;;;6214651;23;20071;-95
2022/10/02 01:57:35;;;;;;;5.32;3.38;;;;;;;;;;6215002;23;20033;-94
2022/10/02 02:00:06;;;;;;;4.78;4.10;;;;;;;;;;6214665;23;20028;-95
2022/10/02 02:02:36;;;;;;;5.75;4.40;;;;;;;;;;6214887;23;20091;-93
2022/10/02 02:05:08;;;;;;;4.30;3.67;;;;;;;;;;6215013;23;20020;-96
2022/10/02 02:07:35;;;;;;;5.25;3.22;;;;;;;;;;6214947;23;20401;-95
2022/10/02 02:10:08;;;;;;;5.85;3.65;;;;;;;;;;6214658;23;20095;-95
2022/10/02 02:12:39;;;;;;;4.70;3.67;;;;;;;;;;6214894;23;20074;-96
2022/10/02 02:15:07;;;;;;;4.28;3.40;;;;;;;;;;6214836;23;20082;-96
2022/10/02 02:17:37;;;;;;;6.60;3.88;;;;;;;;;;6214815;23;20458;-96
2022/10/02 02:20:06;;;;;;;5.30;3.63;;;;;;;;;;6214549;23;20528;-94
2022/10/02 02:22:34;;;;;;;4.88;3.28;;;;;;;;;;6214719;23;20337;-94
2022/10/02 02:25:03;;;;;;;5.85;3.15;;;;;;;;;;6214746;23;20098;-93
2022/10/02 02:27:31;;;;;;;5.53;3.70;;;;;;;;;;6214500;23;20104;-94
2022/10/02 02:30:02;;;;;;;6.53;3.33;;;;;;;;;;6214495;23;20025;-94
2022/10/02 02:32:30;;;;;;;5.40;3.10;;;;;;;;;;6214607;23;20144;-94
2022/10/02 02:35:00;;;;;;;3.63;2.65;;;;;;;;;;6214476;23;20024;-93
2022/10/02 02:37:29;;;;;;;5.47;4.45;;;;;;;;;;6214272;23;20074;-94
2022/10/02 02:39:57;;;;;;;4.32;3.53;;;;;;;;;;6214514;23;20094;-94
2022/10/02 02:42:25;;;;;;;4.80;3.83;;;;;;;;;;6214742;23;20078;-93
2022/10/02 02:44:53;;;;;;;4.45;3.88;;;;;;;;;;6214759;23;20438;-94
2022/10/02 02:47:24;;;;;;;4.70;3.10;;;;;;;;;;6214757;23;20024;-94
2022/10/02 02:49:52;;;;;;;4.28;3.88;;;;;;;;;;6214525;23;20087;-95
2022/10/02 02:52:20;;;;;;;5.78;3.60;;;;;;;;;;6214643;23;20016;-94
2022/10/02 02:54:48;;;;;;;4.32;3.50;;;;;;;;;;6214645;23;20025;-93
2022/10/02 02:57:16;;;;;;;4.97;2.90;;;;;;;;;;6214641;23;20028;-93
2022/10/02 02:59:45;;;;;;;6.35;3.55;;;;;;;;;;6214765;23;20025;-94
2022/10/02 03:02:11;;;;;;;4.72;3.08;;;;;;;;;;6214223;23;20294;-93
2022/10/02 03:04:39;;;;;;;3.83;2.63;;;;;;;;;;6215091;23;20016;-95
2022/10/02 03:07:06;;;;;;;5.13;2.72;;;;;;;;;;6216444;23;20466;-94
2022/10/02 03:09:33;;;;;;;4.15;3.30;;;;;;;;;;6216672;23;20079;-95
2022/10/02 03:12:04;;;;;;;3.47;2.72;;;;;;;;;;6216489;23;20104;-95
2022/10/02 03:14:41;;;;;;;5.50;3.25;;;;;;;;;;6216127;23;20099;-95
2022/10/02 03:17:10;;;;;;;3.65;2.55;;;;;;;;;;6216486;23;20025;-94
2022/10/02 03:19:41;;;;;;;6.68;2.67;;;;;;;;;;6216056;23;20462;-95
2022/10/02 03:22:11;;;;;;;4.80;3.28;;;;;;;;;;6216433;23;20021;-94
2022/10/02 03:24:41;;;;;;;5.97;3.22;;;;;;;;;;6215990;23;20025;-92
2022/10/02 03:27:11;;;;;;;3.03;2.55;;;;;;;;;;6216061;23;20029;-95
2022/10/02 03:29:40;;;;;;;3.47;2.65;;;;;;;;;;6215817;23;20467;-93
2022/10/02 03:32:08;;;;;;;3.47;3.03;;;;;;;;;;6216461;23;20405;-92
2022/10/02 03:34:36;;;;;;;4.15;3.75;;;;;;;;;;6216150;23;20028;-94
2022/10/02 03:37:02;;;;;;;5.00;3.25;;;;;;;;;;6216403;23;20020;-94
2022/10/02 03:39:30;;;;;;;2.90;2.42;;;;;;;;;;6216399;23;20393;-92
2022/10/02 03:41:57;;;;;;;5.63;3.28;;;;;;;;;;6217615;23;20079;-94
2022/10/02 03:44:23;;;;;;;2.80;2.20;;;;;;;;;;6221012;23;20394;-93
2022/10/02 03:46:50;;;;;;;2.95;2.42;;;;;;;;;;6216678;23;20324;-91
2022/10/02 03:49:16;;;;;;;5.78;1.65;;;;;;;;;;6217633;23;20024;-94
2022/10/02 03:51:43;;;;;;;3.15;2.03;;;;;;;;;;6216193;23;20401;-94
2022/10/02 03:54:15;;;;;;;7.38;2.50;;;;;;;;;;6216183;23;20071;-94
2022/10/02 03:56:46;;;;;;;2.90;2.60;;;;;;;;;;6215752;23;20091;-92
2022/10/02 03:59:15;;;;;;;4.63;4.22;;;;;;;;;;6215770;23;20020;-93
2022/10/02 04:01:45;;;;;;;2.55;1.67;;;;;;;;;;6215598;23;20552;-93
2022/10/02 04:04:13;;;;;;;5.00;2.78;;;;;;;;;;6216036;23;20081;-93
2022/10/02 04:06:43;;;;;;;3.38;3.10;;;;;;;;;;6216187;23;20346;-92
2022/10/02 04:09:11;;;;;;;2.80;2.05;;;;;;;;;;6215785;23;20332;-94
2022/10/02 04:11:40;;;;;;;5.07;2.28;;;;;;;;;;6215647;23;20054;-93
2022/10/02 04:14:11;;;;;;;5.05;2.45;;;;;;;;;;6215362;23;20016;-93
2022/10/02 04:16:40;;;;;;;3.42;2.35;;;;;;;;;;6214824;23;20024;-94
2022/10/02 04:19:11;;;;;;;3.70;2.72;;;;;;;;;;6215876;23;20020;-94
2022/10/02 04:21:42;;;;;;;2.25;1.83;;;;;;;;;;6215466;23;20025;-94
2022/10/02 04:24:13;;;;;;;2.72;1.98;;;;;;;;;;6215693;23;20021;-94
2022/10/02 04:26:41;;;;;;;8.07;2.28;;;;;;;;;;6215726;23;20045;-92
2022/10/02 04:29:13;;;;;;;3.83;2.25;;;;;;;;;;6215854;23;20020;-93
2022/10/02 04:31:39;;;;;;;4.15;3.03;;;;;;;;;;6215217;23;20032;-94
2022/10/02 04:34:07;;;;;;;2.90;2.60;;;;;;;;;;6215292;23;20020;-93
2022/10/02 04:36:39;;;;;;;3.72;2.70;;;;;;;;;;6215984;23;20024;-93
2022/10/02 04:39:11;;;;;;;3.80;3.50;;;;;;;;;;6215362;23;20082;-94
2022/10/02 04:41:51;;;;;;;4.72;2.40;;;;;;;;;;6215585;23;20025;-94
2022/10/02 04:44:26;;;;;;;5.43;2.60;;;;;;;;;;6215316;23;20086;-94
2022/10/02 04:47:07;;;;;;;4.53;2.08;;;;;;;;;;6215626;23;20032;-94
2022/10/02 04:49:50;;;;;;;3.92;2.80;;;;;;;;;;6215341;23;20070;-94
2022/10/02 04:52:24;;;;;;;5.80;3.20;;;;;;;;;;6215696;23;20025;-94
2022/10/02 04:55:02;;;;;;;3.05;2.25;;;;;;;;;;6215427;23;20024;-94
2022/10/02 04:57:44;;;;;;;6.30;2.08;;;;;;;;;;6215286;23;20331;-95
2022/10/02 05:00:13;;;;;;;2.85;2.03;;;;;;;;;;6216264;23;20028;-95
2022/10/02 05:02:48;;;;;;;4.47;2.38;;;;;;;;;;6216128;23;20021;-94
2022/10/02 05:05:19;;;;;;;4.25;2.55;;;;;;;;;;6215074;23;20024;-94
2022/10/02 05:07:55;;;;;;;3.63;2.90;;;;;;;;;;6215424;23;20075;-93
2022/10/02 05:10:31;;;;;;;3.42;2.85;;;;;;;;;;6215184;23;20028;-91
2022/10/02 05:13:02;;;;;;;3.63;2.13;;;;;;;;;;6215078;23;20029;-93
2022/10/02 05:15:36;;;;;;;4.05;2.35;;;;;;;;;;6214962;23;20063;-93
2022/10/02 05:18:28;;;;;;;5.55;2.55;;;;;;;;;;6215352;23;20216;-95
2022/10/02 05:21:09;;;;;;;3.15;1.85;;;;;;;;;;6215552;23;20120;-94
2022/10/02 05:23:40;;;;;;;3.08;2.03;;;;;;;;;;6210736;23;20078;-93
2022/10/02 05:26:14;;;;;;;6.15;2.65;;;;;;;;;;6214694;23;20082;-94
2022/10/02 05:28:59;;;;;;;9.38;2.80;;;;;;;;;;6214617;23;20116;-94
2022/10/02 05:31:33;;;;;;;9.38;4.20;;;;;;;;;;6214537;23;20355;-92
2022/10/02 05:34:11;;;;;;;3.90;2.58;;;;;;;;;;6215117;23;20020;-93
2022/10/02 05:36:43;;;;;;;3.72;1.73;;;;;;;;;;6214837;23;20401;-93
2022/10/02 05:39:14;;;;;;;3.13;2.28;;;;;;;;;;6215168;23;20020;-94
2022/10/02 05:41:43;;;;;;;4.05;2.25;;;;;;;;;;6214585;23;20492;-94
2022/10/02 05:44:14;;;;;;;3.25;2.95;;;;;;;;;;6214859;23;20024;-92
2022/10/02 05:46:44;;;;;;;5.63;2.90;;;;;;;;;;6214946;23;20020;-93
2022/10/02 05:49:14;;;;;;;2.65;1.77;;;;;;;;;;6214653;23;20462;-93
2022/10/02 05:51:44;;;;;;;5.13;3.03;;;;;;;;;;6215013;23;20082;-92
2022/10/02 05:54:16;;;;;;;3.92;3.28;;;;;;;;;;6215081;23;20048;-91
2022/10/02 05:56:44;;;;;;;3.67;2.55;;;;;;;;;;6214745;23;20025;-92
2022/10/02 05:59:17;;;;;;;3.25;2.58;;;;;;;;;;6214416;23;20462;-92
2022/10/02 06:01:47;;;;;;;3.70;2.33;;;;;;;;;;6213339;23;20035;-93
2022/10/02 06:04:17;;;;;;;3.13;2.30;;;;;;;;;;6214831;23;20409;-92
2022/10/02 06:06:46;;;;;;;8.00;3.08;;;;;;;;;;6214591;23;20024;-92
2022/10/02 06:09:15;;;;;;;5.00;2.78;;;;;;;;;;6213515;23;20083;-95
2022/10/02 06:11:46;;;;;;;4.55;2.97;;;;;;;;;;6215343;23;20071;-93
2022/10/02 06:14:15;;;;;;;4.88;3.65;;;;;;;;;;6215663;23;20095;-94
2022/10/02 06:16:45;;;;;;;8.60;3.35;;;;;;;;;;6215140;23;20450;-93
2022/10/02 06:19:16;;;;;;;5.53;2.53;;;;;;;;;;6215791;23;20402;-92
2022/10/02 06:21:46;;;;;;;5.65;3.10;;;;;;;;;;6215153;23;20419;-93
2022/10/02 06:24:17;;;;;;;4.28;2.72;;;;;;;;;;6214895;23;20025;-92
2022/10/02 06:26:46;;;;;;;3.67;2.90;;;;;;;;;;6215527;23;20107;-95
2022/10/02 06:29:15;;;;;;;5.03;2.60;;;;;;;;;;6215772;23;20024;-94
2022/10/02 06:31:45;;;;;;;6.70;3.45;;;;;;;;;;6215176;23;20024;-93
2022/10/02 06:34:14;;;;;;;4.72;3.33;;;;;;;;;;6215093;23;20020;-91
2022/10/02 06:36:58;;;;;;;4.35;3.95;;;;;;;;;;6215226;23;20331;-92
2022/10/02 06:39:31;;;;;;;5.13;3.28;;;;;;;;;;6195052;23;20016;-95
2022/10/02 06:42:05;;;;;;;5.75;3.38;;;;;;;;;;6213466;23;20509;-93
2022/10/02 06:44:48;;;;;;;3.78;2.90;;;;;;;;;;6214916;23;20327;-95
2022/10/02 06:47:21;;;;;;;4.22;2.78;;;;;;;;;;6216496;23;20025;-94
2022/10/02 06:49:58;;;;;;;7.43;3.95;;;;;;;;;;6215307;23;20075;-96
2022/10/02 06:52:28;;;;;;;6.63;3.50;;;;;;;;;;6215357;23;20075;-95
2022/10/02 06:55:01;;;;;;;4.30;3.05;;;;;;;;;;6215837;23;20021;-95
2022/10/02 06:57:33;;;;;;;4.38;2.38;;;;;;;;;;6215539;23;20402;-95
2022/10/02 07:00:07;;;;;;;5.65;4.85;;;;;;;;;;6215773;23;20075;-94
2022/10/02 07:02:47;;;;;;;3.90;3.08;;;;;;;;;;6216038;23;20082;-96
2022/10/02 07:05:27;;;;;;;4.28;2.65;;;;;;;;;;6216262;23;20021;-93
2022/10/02 07:07:58;;;;;;;2.78;2.55;;;;;;;;;;6217869;23;20098;-94
2022/10/02 07:10:29;;;;;;;5.10;2.42;;;;;;;;;;6216155;23;20082;-95
2022/10/02 07:13:11;;;;;;;3.40;2.65;;;;;;;;;;6216194;23;20024;-93
2022/10/02 07:15:59;;;;;;;1.77;1.45;;;;;;;;;;6212340;23;20032;-94
2022/10/02 07:18:32;;;;;;;2.58;2.25;;;;;;;;;;6211056;23;20020;-93
2022/10/02 07:21:06;;;;;;;4.70;1.70;;;;;;;;;;6215698;23;20075;-94
2022/10/02 07:23:40;;;;;;;2.50;2.30;;;;;;;;;;6215922;23;20397;-94
2022/10/02 07:26:15;;;;;;;2.47;2.28;;;;;;;;;;6215349;23;20524;-95
2022/10/02 07:28:44;;;;;;;2.78;2.58;;;;;;;;;;6215393;23;20100;-95
2022/10/02 07:31:17;;;;;;;2.67;2.47;;;;;;;;;;6215783;23;20025;-93
2022/10/02 07:33:52;;;;;;;3.80;2.80;;;;;;;;;;6215546;23;20099;-94
2022/10/02 07:36:26;;;;;;;3.45;2.25;;;;;;;;;;6215371;23;20097;-94
2022/10/02 07:39:02;;;;;;;2.75;2.53;;;;;;;;;;6221763;23;20025;-92
2022/10/02 07:41:39;;;;;;;2.72;2.40;;;;;;;;;;6214542;23;20025;-94
2022/10/02 07:44:12;;;;;;;3.88;2.90;;;;;;;;;;6214965;23;20099;-94
2022/10/02 07:46:45;;;;;;;1.83;1.50;;;;;;;;;;6215505;23;20075;-94
2022/10/02 07:49:19;;;;;;;3.05;2.85;;;;;;;;;;6215255;23;20021;-93
2022/10/02 07:51:51;;;;;;;2.25;1.70;;;;;;;;;;6215835;23;20548;-94
2022/10/02 07:54:35;;;;;;;2.35;2.17;;;;;;;;;;6217131;23;20024;-92
2022/10/02 07:57:04;;;;;;;2.05;1.88;;;;;;;;;;6196823;23;20017;-92
2022/10/02 07:59:31;;;;;;;1.33;1.05;;;;;;;;;;6216929;23;20095;-91
2022/10/02 08:01:58;;;;;;;2.88;2.67;;;;;;;;;;6216301;23;20104;-93
2022/10/02 08:04:29;;;;;;;3.35;2.38;;;;;;;;;;6216970;23;20033;-91
2022/10/02 08:06:59;;;;;;;1.80;1.60;;;;;;;;;;6216600;23;20047;-93
2022/10/02 08:09:31;;;;;;;2.38;2.17;;;;;;;;;;6216447;23;20086;-90
2022/10/02 08:11:59;;;;;;;2.35;2.15;;;;;;;;;;6216052;23;20029;-90
2022/10/02 08:14:29;;;;;;;2.30;2.10;;;;;;;;;;6215767;23;20532;-90
2022/10/02 08:16:57;;;;;;;2.33;2.17;;;;;;;;;;6216088;23;20028;-90
2022/10/02 08:19:28;;;;;;;2.72;2.47;;;;;;;;;;6215890;23;20478;-88
2022/10/02 08:21:58;;;;;;;2.95;2.70;;;;;;;;;;6215640;23;20020;-89
2022/10/02 08:24:28;;;;;;;2.78;2.58;;;;;;;;;;6216179;23;20017;-89
2022/10/02 08:26:55;;;;;;;5.43;2.88;;;;;;;;;;6215881;23;20107;-89
2022/10/02 08:29:24;;;;;;;2.45;1.70;;;;;;;;;;6216287;23;20397;-91
2022/10/02 08:31:51;;;;;;;4.70;3.10;;;;;;;;;;6216325;23;20028;-89
2022/10/02 08:34:19;;;;;;;3.50;2.25;;;;;;;;;;6215464;23;20087;-88
2022/10/02 08:36:58;;;;;;;4.00;3.33;;;;;;;;;;6213943;23;20020;-91
2022/10/02 08:39:43;;;;;;;3.22;3.03;;;;;;;;;;6216021;23;20062;-91
2022/10/02 08:42:22;;;;;;;3.33;3.10;;;;;;;;;;6216039;23;20098;-90
2022/10/02 08:45:08;;;;;;;2.63;2.42;;;;;;;;;;6216590;23;20075;-94
2022/10/02 08:47:46;;;;;;;2.22;2.05;;;;;;;;;;6216431;23;20082;-90
2022/10/02 08:50:28;;;;;;;1.88;1.77;;;;;;;;;;6216001;23;20043;-94
2022/10/02 08:52:55;;;;;;;;;;;;;;;;;;6215706;23;20024;-94
2022/10/02 08:55:43;;;;;;;2.30;2.10;;;;;;;;;;6215472;23;19915;-94
2022/10/02 08:58:27;;;;;;;2.50;1.63;;;;;;;;;;6205802;23;20020;-94
2022/10/02 09:00:58;;;;;;;2.78;2.25;;;;;;;;;;6215453;23;20099;-94
2022/10/02 09:03:40;;;;;;;2.15;2.05;;;;;;;;;;6215333;23;20083;-93
2022/10/02 09:06:25;;;;;;;2.97;2.30;;;;;;;;;;6216653;23;20095;-93
2022/10/02 09:09:23;;;;;;;3.03;2.85;;;;;;;;;;6216702;23;20020;-94
2022/10/02 09:12:10;;;;;;;1.80;1.70;;;;;;;;;;6216600;23;20020;-91
2022/10/02 09:14:48;;;;;;;7.07;2.83;;;;;;;;;;6216016;23;20024;-93
2022/10/02 09:17:33;;;;;;;2.13;1.60;;;;;;;;;;6216675;23;20101;-94
2022/10/02 09:20:06;;;;;;;2.85;2.63;;;;;;;;;;6216372;23;20520;-95
2022/10/02 09:22:54;;;;;;;1.63;1.52;;;;;;;;;;6216677;23;20078;-94
2022/10/02 09:25:23;;;;;;;3.20;2.90;;;;;;;;;;6216585;23;20024;-94
2022/10/02 09:28:03;;;;;;;2.60;2.47;;;;;;;;;;6216731;23;20079;-94
2022/10/02 09:30:42;;;;;;;2.67;2.47;;;;;;;;;;6217008;23;20053;-95
2022/10/02 09:33:23;;;;;;;2.60;2.40;;;;;;;;;;6216273;23;20024;-94
2022/10/02 09:36:14;;;;;;;1.38;1.27;;;;;;;;;;6216329;23;20075;-95
2022/10/02 09:38:58;;;;;;;2.58;1.20;;;;;;;;;;6216079;23;20075;-95
2022/10/02 09:41:49;;;;;;;3.05;2.25;;;;;;;;;;6156166;23;20509;-95
2022/10/02 09:44:33;;;;;;;1.95;1.83;;;;;;;;;;6216147;23;20067;-94
2022/10/02 09:47:19;;;;;;;2.13;1.70;;;;;;;;;;6215739;23;20082;-94
2022/10/02 09:50:03;;;;;;;2.80;2.50;;;;;;;;;;6215512;23;20119;-95
2022/10/02 09:52:38;;;;;;;4.18;2.13;;;;;;;;;;6215188;23;20028;-95
2022/10/02 09:55:21;;;;;;;1.92;1.80;;;;;;;;;;6214671;23;20017;-94
2022/10/02 09:58:02;;;;;;;3.45;3.03;;;;;;;;;;6215179;23;20024;-95
2022/10/02 10:00:45;;;;;;;2.17;1.98;;;;;;;;;;6214800;23;20024;-94
2022/10/02 10:03:35;;;;;;;4.45;4.15;;;;;;;;;;6215658;23;20022;-95
2022/10/02 10:06:25;;;;;;;2.60;2.47;;;;;;;;;;6215032;23;20016;-95
2022/10/02 10:09:07;;;;;;;2.47;2.28;;;;;;;;;;6215003;23;20075;-94
2022/10/02 10:11:48;;;;;;;2.33;2.13;;;;;;;;;;6210541;23;20021;-95
2022/10/02 10:14:35;;;;;;;2.58;2.08;;;;;;;;;;6215827;23;20078;-95
2022/10/02 10:17:23;;;;;;;4.57;2.65;;;;;;;;;;6216551;23;20450;-95
2022/10/02 10:20:07;;;;;;;2.45;2.35;;;;;;;;;;6166326;23;20021;-95
2022/10/02 10:22:57;;;;;;;3.70;1.98;;;;;;;;;;6216053;23;20025;-95
2022/10/02 10:25:34;;;;;;;2.33;2.13;;;;;;;;;;6216305;23;20465;-94
2022/10/02 10:28:15;;;;;;;3.03;2.83;;;;;;;;;;6217090;23;20024;-96
2022/10/02 10:30:55;;;;;;;2.75;2.55;;;;;;;;;;6216682;23;20044;-95
2022/10/02 10:33:40;;;;;;;3.13;2.92;;;;;;;;;;6217359;23;20028;-94
2022/10/02 10:39:25;;;;;;;3.13;2.65;;;;;;;;;;6216777;23;20127;-94
2022/10/02 10:41:51;;;;;;;;;;;;;;;;;;6216680;23;20020;-94
2022/10/02 10:44:39;;;;;;;2.67;2.47;;;;;;;;;;6214411;23;19916;-95
2022/10/02 10:47:17;;;;;;;2.17;1.98;;;;;;;;;;6216120;23;20023;-95
2022/10/02 10:49:56;;;;;;;3.72;2.60;;;;;;;;;;6215905;23;20025;-94
2022/10/02 10:52:30;;;;;;;3.35;3.05;;;;;;;;;;6213170;23;20067;-94
2022/10/02 10:55:05;;;;;;;2.35;2.25;;;;;;;;;;6214544;23;20024;-95
2022/10/02 10:57:42;;;;;;;3.05;2.50;;;;;;;;;;6215056;23;20462;-95
2022/10/02 11:00:12;;;;;;;3.05;2.55;;;;;;;;;;6215414;23;20516;-95
2022/10/02 11:02:58;;;;;;;3.20;2.45;;;;;;;;;;6215451;23;20047;-94
2022/10/02 11:05:50;;;;;;;3.90;3.63;;;;;;;;;;6215505;23;20016;-95
2022/10/02 11:08:24;;;;;;;2.95;2.78;;;;;;;;;;6215610;23;20025;-94
2022/10/02 11:10:58;;;;;;;3.70;3.40;;;;;;;;;;6214741;23;20025;-94
2022/10/02 11:13:40;;;;;;;2.58;2.22;;;;;;;;;;6215749;23;20021;-95
2022/10/02 11:16:21;;;;;;;3.03;1.83;;;;;;;;;;6215694;23;20024;-93
2022/10/02 11:19:10;;;;;;;2.83;1.92;;;;;;;;;;6210664;23;20024;-94
2022/10/02 11:21:54;;;;;;;1.90;1.77;;;;;;;;;;6215057;23;20024;-94
2022/10/02 11:24:35;;;;;;;3.75;2.65;;;;;;;;;;6211982;23;20016;-93
2022/10/02 11:27:07;;;;;;;4.32;2.63;;;;;;;;;;6216810;23;20090;-93
2022/10/02 11:29:50;;;;;;;2.28;2.08;;;;;;;;;;6225684;23;20028;-93
2022/10/02 11:32:27;;;;;;;2.92;2.63;;;;;;;;;;6224541;23;20033;-91
2022/10/02 11:35:18;;;;;;;3.25;2.60;;;;;;;;;;6217631;23;20021;-92
2022/10/02 11:37:52;;;;;;;3.03;2.67;;;;;;;;;;6187872;23;20079;-92
2022/10/02 11:40:37;;;;;;;2.90;2.53;;;;;;;;;;6217148;23;20078;-94
2022/10/02 11:43:17;;;;;;;2.58;2.22;;;;;;;;;;6217037;23;20032;-92
2022/10/02 11:45:54;;;;;;;2.53;2.35;;;;;;;;;;6217297;23;20127;-93
2022/10/02 11:48:39;;;;;;;3.28;2.97;;;;;;;;;;6217483;23;20027;-94
2022/10/02 11:51:22;;;;;;;3.15;2.00;;;;;;;;;;6217462;23;20024;-92
2022/10/02 11:53:48;;;;;;;;;;;;;;;;;;6217782;23;20044;-92
2022/10/02 11:56:32;;;;;;;3.72;3.47;;;;;;;;;;6217138;23;19920;-94
2022/10/02 11:59:06;;;;;;;2.40;2.28;;;;;;;;;;6217430;23;20020;-94
2022/10/02 12:01:37;;;;;;;1.38;1.30;;;;;;;;;;6217761;23;20021;-93
2022/10/02 12:04:20;;;;;;;2.35;2.22;;;;;;;;;;6216859;23;20101;-92
2022/10/02 12:07:03;;;;;;;1.90;1.80;;;;;;;;;;6217138;23;20104;-93
2022/10/02 12:09:37;;;;;;;2.63;1.63;;;;;;;;;;6213996;23;20040;-93
2022/10/02 12:12:11;;;;;;;2.20;2.10;;;;;;;;;;6217017;23;20071;-93
2022/10/02 12:14:41;;;;;;;1.77;1.65;;;;;;;;;;6216962;23;20024;-92
2022/10/02 12:17:18;;;;;;;7.22;6.82;;;;;;;;;;6216970;23;20665;-92
2022/10/02 12:28:21;;;;;;;11.88;11.27;;;;;;;;;;6216947;23;20365;-93
2022/10/02 12:30:50;;;;;;;2.72;2.28;;;;;;;;;;6216935;23;20024;-93
2022/10/02 12:33:31;;;;;;;3.00;2.80;;;;;;;;;;6216995;23;20086;-93
2022/10/02 12:36:15;;;;;;;3.28;3.08;;;;;;;;;;6216955;23;20145;-92
2022/10/02 12:38:51;;;;;;;1.63;1.52;;;;;;;;;;6216120;23;20020;-92
2022/10/02 12:41:26;;;;;;;1.63;1.40;;;;;;;;;;6217532;23;20031;-93
2022/10/02 12:44:23;;;;;;;2.88;2.10;;;;;;;;;;6216821;23;20016;-94
2022/10/02 12:47:01;;;;;;;1.73;1.63;;;;;;;;;;6095445;23;20528;-93
2022/10/02 12:49:35;;;;;;;2.13;1.95;;;;;;;;;;6096009;23;20388;-92
2022/10/02 12:52:26;;;;;;;1.95;1.85;;;;;;;;;;6095276;23;20026;-94
2022/10/02 12:55:10;;;;;;;3.10;2.90;;;;;;;;;;6091308;23;20078;-92
2022/10/02 12:57:54;;;;;;;3.95;3.72;;;;;;;;;;6095132;23;20027;-95
2022/10/02 13:00:21;;;;;;;1.45;1.35;;;;;;;;;;6094879;23;20030;-92
2022/10/02 13:02:58;;;;;;;1.90;1.80;;;;;;;;;;6094131;23;20038;-93
2022/10/02 13:05:44;;;;;;;3.05;2.83;;;;;;;;;;6093862;23;20472;-93
2022/10/02 13:08:17;;;;;;;2.15;2.05;;;;;;;;;;6094111;23;20023;-93
2022/10/02 13:10:46;;;;;;;18.50;16.88;;;;;;;;;;6093693;23;20026;-92
2022/10/02 13:13:30;;;;;;;3.60;3.33;;;;;;;;;;6093615;23;20022;-93
2022/10/02 13:16:01;;;;;;;3.30;3.13;;;;;;;;;;6094348;23;20373;-94
2022/10/02 13:18:42;;;;;;;5.82;5.10;;;;;;;;;;6094164;23;20511;-95
2022/10/02 13:21:12;;;;;;;3.05;2.85;;;;;;;;;;6161463;23;20020;-94
2022/10/02 13:23:43;;;;;;;4.35;4.05;;;;;;;;;;6215133;23;20344;-93
2022/10/02 13:26:14;;;;;;;2.75;2.30;;;;;;;;;;6215221;23;20397;-94
2022/10/02 13:28:56;;;;;;;3.83;3.63;;;;;;;;;;6215387;23;20027;-94
2022/10/02 13:31:29;;;;;;;2.35;2.20;;;;;;;;;;6190028;23;20021;-91
2022/10/02 13:34:08;;;;;;;1.80;1.70;;;;;;;;;;6215768;23;20025;-94
2022/10/02 13:36:44;;;;;;;2.10;2.00;;;;;;;;;;6215461;23;20020;-93
2022/10/02 13:39:23;;;;;;;3.22;3.13;;;;;;;;;;6215430;23;20036;-94
2022/10/02 13:41:56;;;;;;;2.13;2.03;;;;;;;;;;6214874;23;20078;-93
2022/10/02 13:44:29;;;;;;;3.05;2.10;;;;;;;;;;6215619;23;20458;-94
2022/10/02 13:47:01;;;;;;;1.85;1.75;;;;;;;;;;6216254;23;20083;-94
2022/10/02 13:49:36;;;;;;;1.58;1.48;;;;;;;;;;6215544;23;20131;-93
2022/10/02 13:52:10;;;;;;;1.60;1.50;;;;;;;;;;6216193;23;20027;-93
2022/10/02 13:54:41;;;;;;;2.38;2.28;;;;;;;;;;6215076;23;20492;-93
2022/10/02 13:57:13;;;;;;;2.28;2.15;;;;;;;;;;6215155;23;20024;-95
2022/10/02 13:59:53;;;;;;;2.13;2.03;;;;;;;;;;6216016;23;20024;-93
2022/10/02 14:02:26;;;;;;;3.30;3.10;;;;;;;;;;6215837;23;20488;-93
2022/10/02 14:04:57;;;;;;;2.00;1.90;;;;;;;;;;6216251;23;20071;-94
2022/10/02 14:07:31;;;;;;;2.38;2.28;;;;;;;;;;6216255;23;20017;-94
2022/10/02 14:10:03;;;;;;;1.65;1.55;;;;;;;;;;6215948;23;20398;-93
2022/10/02 14:12:35;;;;;;;2.22;2.10;;;;;;;;;;6216202;23;20024;-95
2022/10/02 14:15:16;;;;;;;1.95;1.85;;;;;;;;;;6215730;23;20042;-94
2022/10/02 14:17:48;;;;;;;3.78;1.98;;;;;;;;;;6210985;23;20078;-95
2022/10/02 14:20:21;;;;;;;2.47;2.38;;;;;;;;;;6215945;23;20024;-93
2022/10/02 14:22:55;;;;;;;1.58;1.48;;;;;;;;;;6216092;23;20051;-94
2022/10/02 14:25:29;;;;;;;1.55;1.45;;;;;;;;;;6216209;23;20335;-93
2022/10/02 14:28:17;;;;;;;1.20;1.10;;;;;;;;;;6216441;23;20331;-93
2022/10/02 14:30:53;;;;;;;2.95;2.33;;;;;;;;;;6205796;23;20398;-93
2022/10/02 14:33:24;;;;;;;3.92;2.70;;;;;;;;;;6215664;23;20024;-93
2022/10/02 14:35:59;;;;;;;1.70;1.60;;;;;;;;;;6215893;23;20079;-93
2022/10/02 14:38:36;;;;;;;1.70;1.60;;;;;;;;;;6215674;23;20025;-93
2022/10/02 14:41:09;;;;;;;2.75;2.38;;;;;;;;;;6215756;23;20028;-93
2022/10/02 14:43:50;;;;;;;2.38;2.17;;;;;;;;;;6215457;23;20024;-94
2022/10/02 14:46:24;;;;;;;1.35;1.25;;;;;;;;;;6215905;23;20017;-93
2022/10/02 14:49:06;;;;;;;1.92;1.83;;;;;;;;;;6215873;23;20087;-94
2022/10/02 14:51:45;;;;;;;1.27;1.20;;;;;;;;;;6215949;23;20024;-93
2022/10/02 14:54:22;;;;;;;1.42;1.23;;;;;;;;;;6215525;23;20071;-93
2022/10/02 14:56:54;;;;;;;1.75;1.65;;;;;;;;;;6215006;23;20371;-93
2022/10/02 14:59:32;;;;;;;1.50;1.40;;;;;;;;;;6215801;23;20066;-94
2022/10/02 15:02:12;;;;;;;2.05;1.95;;;;;;;;;;6217225;23;20078;-93
2022/10/02 15:04:44;;;;;;;1.52;1.40;;;;;;;;;;6217811;23;20028;-93
2022/10/02 15:07:13;;;;;;;1.95;1.85;;;;;;;;;;6216995;23;20021;-93
2022/10/02 15:09:52;;;;;;;2.55;2.35;;;;;;;;;;6217307;23;20075;-93
2022/10/02 15:12:21;;;;;;;2.70;2.50;;;;;;;;;;6217593;23;20028;-94
2022/10/02 15:15:04;;;;;;;5.90;5.60;;;;;;;;;;6216953;23;20360;-94
2022/10/02 15:17:54;;;;;;;2.40;2.30;;;;;;;;;;6217342;23;20017;-94
2022/10/02 15:20:25;;;;;;;2.65;2.53;;;;;;;;;;6232873;23;20047;-93
2022/10/02 15:22:56;;;;;;;2.35;2.15;;;;;;;;;;6220193;23;20460;-94
2022/10/02 15:25:28;;;;;;;1.40;1.30;;;;;;;;;;6216667;23;20025;-93
2022/10/02 15:27:58;;;;;;;2.60;2.40;;;;;;;;;;6217149;23;20016;-94
2022/10/02 15:30:25;;;;;;;2.42;1.88;;;;;;;;;;6217361;23;20020;-94
2022/10/02 15:33:07;;;;;;;3.90;2.45;;;;;;;;;;6217281;23;20024;-95
2022/10/02 15:35:48;;;;;;;2.03;1.33;;;;;;;;;;6217484;23;20024;-95
2022/10/02 15:38:36;;;;;;;1.55;1.45;;;;;;;;;;6191074;23;20024;-95